createdAt,value
2023-03-08T00:02:10.951Z,3.79
2023-03-08T00:05:19.376Z,3.83
2023-03-08T00:08:27.636Z,3.82
2023-03-08T00:11:37.194Z,3.82
2023-03-08T00:14:45.310Z,3.78
2023-03-08T00:17:53.492Z,3.78
2023-03-08T00:21:03.051Z,3.72
2023-03-08T00:24:12.474Z,3.83
2023-03-08T00:27:21.982Z,3.67
2023-03-08T00:30:30.192Z,3.79
2023-03-08T00:33:38.495Z,3.77
2023-03-08T00:36:47.375Z,3.69
2023-03-08T00:39:58.926Z,3.70
2023-03-08T00:43:09.107Z,3.68
2023-03-08T00:46:17.519Z,3.63
2023-03-08T00:49:27.326Z,3.74
2023-03-08T00:52:35.584Z,3.72
2023-03-08T00:55:50.861Z,3.73
2023-03-08T00:59:00.846Z,3.64
2023-03-08T01:02:09.304Z,3.66
2023-03-08T01:05:17.721Z,3.60
2023-03-08T01:08:27.659Z,3.71
2023-03-08T01:11:36.661Z,3.60
2023-03-08T01:14:46.185Z,3.65
2023-03-08T01:17:55.104Z,3.61
2023-03-08T01:21:05.693Z,3.58
2023-03-08T01:24:14.200Z,3.59
2023-03-08T01:27:22.381Z,3.53
2023-03-08T01:30:32.057Z,3.50
2023-03-08T01:33:43.345Z,3.36
2023-03-08T01:36:51.453Z,3.25
2023-03-08T01:39:59.875Z,2.94
2023-03-08T01:43:24.441Z,2.97
2023-03-08T01:46:36.240Z,2.91
2023-03-08T01:50:01.547Z,2.79
2023-03-08T01:53:10.018Z,2.76
2023-03-08T01:56:20.740Z,2.68
2023-03-08T01:59:33.089Z,2.57
2023-03-08T02:02:49.303Z,2.45
2023-03-08T02:05:58.947Z,2.40
2023-03-08T02:09:08.105Z,2.45
2023-03-08T02:12:17.013Z,2.60
2023-03-08T02:15:26.797Z,2.35
2023-03-08T02:18:52.144Z,2.16
2023-03-08T02:22:00.688Z,2.00
2023-03-08T02:25:16.028Z,2.17
2023-03-08T02:28:27.066Z,1.99
2023-03-08T02:31:35.406Z,1.98
2023-03-08T02:34:46.389Z,1.98
2023-03-08T02:37:54.624Z,1.91
2023-03-08T02:41:04.475Z,1.86
2023-03-08T02:44:12.627Z,1.86
2023-03-08T02:47:21.067Z,1.97
2023-03-08T02:50:29.470Z,1.77
2023-03-08T02:53:37.864Z,1.70
2023-03-08T02:56:47.653Z,1.90
2023-03-08T02:59:56.313Z,1.76
2023-03-08T03:03:05.480Z,1.58
2023-03-08T03:06:18.011Z,1.33
2023-03-08T03:09:29.486Z,1.34
2023-03-08T03:12:39.995Z,1.33
2023-03-08T03:15:52.080Z,1.31
2023-03-08T03:19:00.636Z,1.67
2023-03-08T03:22:08.978Z,1.63
2023-03-08T03:25:17.650Z,1.51
2023-03-08T03:28:28.984Z,1.60
2023-03-08T03:31:37.785Z,1.52
2023-03-08T03:34:46.820Z,1.39
2023-03-08T03:37:57.222Z,1.19
2023-03-08T03:41:07.936Z,1.19
2023-03-08T03:44:18.731Z,0.92
2023-03-08T03:47:30.949Z,0.79
2023-03-08T03:50:42.643Z,0.77
2023-03-08T03:53:54.853Z,0.74
2023-03-08T03:57:03.266Z,0.67
2023-03-08T04:00:22.180Z,0.61
2023-03-08T04:03:40.321Z,0.51
2023-03-08T04:06:49.920Z,0.51
2023-03-08T04:10:01.808Z,0.57
2023-03-08T04:13:13.420Z,0.60
2023-03-08T04:16:29.083Z,0.48
2023-03-08T04:19:39.402Z,0.49
2023-03-08T04:22:49.245Z,0.43
2023-03-08T04:26:05.699Z,0.58
2023-03-08T04:29:15.541Z,0.79
2023-03-08T04:32:25.658Z,0.76
2023-03-08T04:35:38.084Z,0.79
2023-03-08T04:38:48.475Z,0.75
2023-03-08T04:41:57.596Z,0.81
2023-03-08T04:45:11.283Z,0.92
2023-03-08T04:48:23.809Z,1.12
2023-03-08T04:51:34.088Z,1.11
2023-03-08T04:54:45.876Z,1.36
2023-03-08T04:58:01.836Z,1.45
2023-03-08T05:01:15.430Z,1.51
2023-03-08T05:04:25.854Z,1.51
2023-03-08T05:07:34.443Z,1.47
2023-03-08T05:10:49.784Z,1.53
2023-03-08T05:14:00.727Z,1.63
2023-03-08T05:17:10.399Z,1.51
2023-03-08T05:20:20.454Z,1.56
2023-03-08T05:23:30.342Z,1.55
2023-03-08T05:26:42.302Z,1.50
2023-03-08T05:29:53.206Z,1.44
2023-03-08T05:33:01.646Z,1.55
2023-03-08T05:36:14.324Z,1.48
2023-03-08T05:39:24.700Z,1.42
2023-03-08T05:42:44.407Z,1.46
2023-03-08T05:45:59.212Z,1.33
2023-03-08T05:49:09.458Z,1.47
2023-03-08T05:52:19.785Z,1.56
2023-03-08T05:55:28.314Z,1.61
2023-03-08T05:58:38.471Z,1.62
2023-03-08T06:01:47.174Z,1.65
2023-03-08T06:05:13.612Z,1.65
2023-03-08T06:08:24.795Z,1.75
2023-03-08T06:11:33.125Z,1.87
2023-03-08T06:14:42.717Z,1.95
2023-03-08T06:17:54.713Z,2.01
2023-03-08T06:21:09.014Z,2.14
2023-03-08T06:24:20.791Z,2.14
2023-03-08T06:27:29.242Z,2.23
2023-03-08T06:30:40.612Z,2.25
2023-03-08T06:33:49.285Z,2.37
2023-03-08T06:37:02.792Z,2.46
2023-03-08T06:40:14.368Z,2.73
2023-03-08T06:43:23.427Z,3.03
2023-03-08T06:46:32.139Z,3.33
2023-03-08T06:49:40.856Z,3.45
2023-03-08T06:52:49.191Z,3.56
2023-03-08T06:56:03.869Z,3.47
2023-03-08T06:59:15.270Z,3.48
2023-03-08T07:02:23.618Z,3.76
2023-03-08T07:05:32.380Z,3.84
2023-03-08T07:08:40.816Z,3.92
2023-03-08T07:11:50.744Z,4.01
2023-03-08T07:14:58.943Z,4.12
2023-03-08T07:18:07.244Z,4.28
2023-03-08T07:21:26.097Z,4.37
2023-03-08T07:24:34.210Z,4.37
2023-03-08T07:27:44.446Z,4.48
2023-03-08T07:30:54.483Z,4.47
2023-03-08T07:34:02.751Z,4.59
2023-03-08T07:37:13.445Z,4.65
2023-03-08T07:40:21.850Z,4.73
2023-03-08T07:43:31.392Z,4.79
2023-03-08T07:46:41.349Z,4.85
2023-03-08T07:49:49.550Z,4.89
2023-03-08T07:52:57.669Z,5.03
2023-03-08T07:56:06.947Z,5.25
2023-03-08T07:59:16.493Z,5.44
2023-03-08T08:02:24.702Z,5.74
2023-03-08T08:05:32.984Z,6.28
2023-03-08T08:08:41.372Z,6.70
2023-03-08T08:11:49.792Z,7.11
2023-03-08T08:14:59.894Z,7.32
2023-03-08T08:18:11.662Z,7.32
2023-03-08T08:21:21.591Z,7.31
2023-03-08T08:24:30.944Z,7.77
2023-03-08T08:27:39.288Z,7.86
2023-03-08T08:30:58.315Z,8.26
2023-03-08T08:34:06.519Z,8.43
2023-03-08T08:37:14.719Z,8.36
2023-03-08T08:40:22.922Z,7.87
2023-03-08T08:43:32.075Z,7.82
2023-03-08T08:46:41.734Z,7.43
2023-03-08T08:49:50.107Z,7.17
2023-03-08T08:52:59.271Z,7.24
2023-03-08T08:56:26.252Z,7.08
2023-03-08T08:59:36.442Z,6.91
2023-03-08T09:02:46.008Z,7.08
2023-03-08T09:05:54.196Z,7.27
2023-03-08T09:09:02.652Z,7.21
2023-03-08T09:12:11.015Z,7.32
2023-03-08T09:15:19.508Z,7.53
2023-03-08T09:18:29.578Z,7.48
2023-03-08T09:21:38.043Z,7.47
2023-03-08T09:24:46.742Z,7.44
2023-03-08T09:27:55.217Z,7.67
2023-03-08T09:31:12.135Z,7.96
2023-03-08T09:34:21.706Z,8.13
2023-03-08T09:37:30.055Z,8.09
2023-03-08T09:40:50.309Z,8.08
2023-03-08T09:44:17.410Z,8.27
2023-03-08T09:47:40.629Z,8.76
2023-03-08T09:50:53.265Z,9.04
2023-03-08T09:54:08.087Z,9.08
2023-03-08T09:57:23.250Z,8.94
2023-03-08T10:00:34.421Z,8.78
2023-03-08T10:04:16.708Z,9.00
2023-03-08T10:07:39.868Z,9.03
2023-03-08T10:11:00.212Z,9.43
2023-03-08T10:14:19.886Z,9.75
2023-03-08T10:17:43.205Z,10.36
2023-03-08T10:20:51.735Z,10.85
2023-03-08T10:24:16.405Z,11.04
2023-03-08T10:27:28.317Z,10.75
2023-03-08T10:30:41.079Z,10.08
2023-03-08T10:33:58.423Z,9.49
2023-03-08T10:37:08.685Z,9.02
2023-03-08T10:40:22.822Z,8.88
2023-03-08T10:43:37.242Z,8.55
2023-03-08T10:46:51.164Z,8.71
2023-03-08T10:50:15.382Z,8.91
2023-03-08T10:53:24.426Z,9.18
2023-03-08T10:56:44.676Z,9.27
2023-03-08T10:59:53.204Z,9.23
2023-03-08T11:03:17.026Z,8.91
2023-03-08T11:06:26.687Z,8.59
2023-03-08T11:09:36.914Z,8.23
2023-03-08T11:12:47.209Z,8.35
2023-03-08T11:16:16.655Z,8.05
2023-03-08T11:19:41.037Z,8.20
2023-03-08T11:23:07.839Z,8.23
2023-03-08T11:26:24.664Z,8.28
2023-03-08T11:29:51.485Z,8.24
2023-03-08T11:33:49.108Z,8.49
2023-03-08T11:37:06.969Z,8.70
2023-03-08T11:40:29.408Z,8.72
2023-03-08T11:44:09.679Z,8.86
2023-03-08T11:47:55.495Z,8.88
2023-03-08T11:51:15.254Z,8.77
2023-03-08T11:54:42.559Z,8.36
2023-03-08T11:57:57.289Z,8.53
2023-03-08T12:01:13.033Z,8.56
2023-03-08T12:04:33.462Z,8.58
2023-03-08T12:07:48.102Z,8.50
2023-03-08T12:11:01.909Z,8.50
2023-03-08T12:14:19.437Z,8.40
2023-03-08T12:17:36.256Z,8.45
2023-03-08T12:20:47.406Z,8.31
2023-03-08T12:24:15.488Z,8.49
2023-03-08T12:27:33.590Z,8.50
2023-03-08T12:31:00.640Z,8.53
2023-03-08T12:34:26.026Z,8.41
2023-03-08T12:37:35.610Z,8.59
2023-03-08T12:40:47.165Z,8.68
2023-03-08T12:44:05.264Z,8.58
2023-03-08T12:47:24.061Z,8.38
2023-03-08T12:50:38.124Z,8.43
2023-03-08T12:54:00.308Z,8.54
2023-03-08T12:57:23.053Z,8.65
2023-03-08T13:00:34.347Z,8.72
2023-03-08T13:03:43.789Z,8.92
2023-03-08T13:07:16.310Z,9.00
2023-03-08T13:10:33.349Z,9.08
2023-03-08T13:13:52.384Z,9.12
2023-03-08T13:17:00.778Z,9.19
2023-03-08T13:20:20.894Z,9.44
2023-03-08T13:23:38.169Z,9.66
2023-03-08T13:27:20.359Z,9.69
2023-03-08T13:30:34.503Z,9.89
2023-03-08T13:33:46.418Z,10.06
2023-03-08T13:36:54.919Z,9.93
2023-03-08T13:40:07.806Z,10.12
2023-03-08T13:43:18.453Z,10.31
2023-03-08T13:46:26.748Z,10.54
2023-03-08T13:49:41.992Z,10.83
2023-03-08T13:52:50.561Z,10.98
2023-03-08T13:56:01.879Z,11.25
2023-03-08T13:59:20.831Z,11.40
2023-03-08T14:02:31.935Z,11.43
2023-03-08T14:05:45.744Z,11.50
2023-03-08T14:08:54.464Z,11.51
2023-03-08T14:12:06.834Z,11.64
2023-03-08T14:15:20.588Z,11.77
2023-03-08T14:18:34.825Z,11.84
2023-03-08T14:21:51.619Z,11.87
2023-03-08T14:25:05.092Z,11.88
2023-03-08T14:28:38.417Z,11.75
2023-03-08T14:32:02.587Z,11.66
2023-03-08T14:35:25.102Z,11.59
2023-03-08T14:38:35.577Z,11.61
2023-03-08T14:41:43.787Z,11.66
2023-03-08T14:44:54.453Z,11.71
2023-03-08T14:48:22.626Z,11.84
2023-03-08T14:51:40.498Z,12.07
2023-03-08T14:54:48.702Z,12.21
2023-03-08T14:58:02.213Z,12.33
2023-03-08T15:01:10.487Z,12.56
2023-03-08T15:04:22.992Z,12.71
2023-03-08T15:07:37.041Z,12.65
2023-03-08T15:10:46.392Z,12.74
2023-03-08T15:13:54.483Z,12.77
2023-03-08T15:17:02.637Z,12.63
2023-03-08T15:20:15.507Z,12.29
2023-03-08T15:23:27.868Z,12.05
2023-03-08T15:26:36.190Z,12.06
2023-03-08T15:29:44.330Z,11.98
2023-03-08T15:32:52.784Z,11.95
2023-03-08T15:36:02.411Z,11.98
2023-03-08T15:39:13.235Z,11.98
2023-03-08T15:42:21.352Z,12.01
2023-03-08T15:45:29.619Z,11.89
2023-03-08T15:48:37.778Z,11.79
2023-03-08T15:51:47.295Z,11.82
2023-03-08T15:54:55.720Z,11.85
2023-03-08T15:58:04.325Z,11.89
2023-03-08T16:01:12.660Z,11.98
2023-03-08T16:04:21.083Z,11.97
2023-03-08T16:07:30.670Z,11.93
2023-03-08T16:10:41.866Z,11.90
2023-03-08T16:13:52.516Z,11.84
2023-03-08T16:17:00.808Z,11.65
2023-03-08T16:20:10.920Z,11.57
2023-03-08T16:23:20.436Z,11.56
2023-03-08T16:26:28.822Z,11.40
2023-03-08T16:29:37.536Z,11.40
2023-03-08T16:32:45.898Z,11.35
2023-03-08T16:35:54.829Z,11.27
2023-03-08T16:39:05.645Z,11.27
2023-03-08T16:42:14.687Z,11.11
2023-03-08T16:45:22.960Z,11.05
2023-03-08T16:48:31.426Z,10.90
2023-03-08T16:51:39.939Z,10.74
2023-03-08T16:54:49.492Z,10.70
2023-03-08T16:57:57.903Z,10.56
2023-03-08T17:01:12.360Z,10.52
2023-03-08T17:04:22.702Z,10.56
2023-03-08T17:07:30.862Z,10.62
2023-03-08T17:10:41.655Z,10.51
2023-03-08T17:13:51.814Z,10.51
2023-03-08T17:17:00.124Z,10.42
2023-03-08T17:20:10.414Z,10.29
2023-03-08T17:23:19.677Z,10.18
2023-03-08T17:26:29.191Z,10.05
2023-03-08T17:29:37.788Z,9.98
2023-03-08T17:32:46.325Z,10.17
2023-03-08T17:35:55.021Z,10.06
2023-03-08T17:39:04.091Z,10.03
2023-03-08T17:42:13.585Z,9.95
2023-03-08T17:45:21.974Z,9.98
2023-03-08T17:48:30.814Z,9.89
2023-03-08T17:51:39.066Z,9.99
2023-03-08T17:54:49.486Z,10.01
2023-03-08T17:57:59.372Z,10.09
2023-03-08T18:01:13.139Z,10.13
2023-03-08T18:04:22.061Z,10.19
2023-03-08T18:07:30.247Z,10.38
2023-03-08T18:10:38.658Z,10.30
2023-03-08T18:13:48.731Z,10.21
2023-03-08T18:16:56.928Z,10.18
2023-03-08T18:20:07.522Z,10.20
2023-03-08T18:23:15.749Z,10.06
2023-03-08T18:26:24.662Z,10.11
2023-03-08T18:29:37.151Z,10.08
2023-03-08T18:32:46.331Z,10.07
2023-03-08T18:35:58.819Z,10.02
2023-03-08T18:39:09.013Z,9.98
2023-03-08T18:42:17.148Z,10.02
2023-03-08T18:45:26.766Z,10.03
2023-03-08T18:48:34.922Z,10.03
2023-03-08T18:51:44.554Z,9.98
2023-03-08T18:54:52.809Z,9.98
2023-03-08T18:58:00.931Z,9.98
2023-03-08T19:01:15.264Z,10.11
2023-03-08T19:04:23.480Z,10.09
2023-03-08T19:07:32.645Z,10.01
2023-03-08T19:10:42.545Z,10.08
2023-03-08T19:13:58.252Z,9.97
2023-03-08T19:17:09.111Z,10.01
2023-03-08T19:20:22.622Z,9.82
2023-03-08T19:23:30.957Z,9.69
2023-03-08T19:26:42.918Z,9.49
2023-03-08T19:29:53.479Z,9.37
2023-03-08T19:33:07.726Z,9.19
2023-03-08T19:36:17.365Z,9.09
2023-03-08T19:39:30.479Z,8.98
2023-03-08T19:42:41.625Z,8.87
2023-03-08T19:45:52.918Z,8.67
2023-03-08T19:49:04.658Z,8.67
2023-03-08T19:52:16.176Z,8.46
2023-03-08T19:55:24.783Z,8.34
2023-03-08T19:58:33.144Z,8.20
2023-03-08T20:01:41.847Z,8.15
2023-03-08T20:04:51.496Z,7.97
2023-03-08T20:07:59.926Z,7.94
2023-03-08T20:11:08.424Z,7.91
2023-03-08T20:14:16.632Z,7.87
2023-03-08T20:17:25.312Z,7.86
2023-03-08T20:20:34.871Z,7.83
2023-03-08T20:23:43.317Z,7.60
2023-03-08T20:26:52.531Z,7.57
2023-03-08T20:30:01.074Z,7.57
2023-03-08T20:33:11.541Z,7.63
2023-03-08T20:36:25.055Z,7.60
2023-03-08T20:39:34.046Z,7.52
2023-03-08T20:42:42.483Z,7.56
2023-03-08T20:45:50.886Z,7.47
2023-03-08T20:48:59.205Z,7.40
2023-03-08T20:52:09.213Z,7.56
2023-03-08T20:55:17.928Z,7.52
2023-03-08T20:58:27.421Z,7.51
2023-03-08T21:01:35.648Z,7.58
2023-03-08T21:04:44.033Z,7.58
2023-03-08T21:07:54.145Z,7.55
2023-03-08T21:11:02.488Z,7.45
2023-03-08T21:14:12.504Z,7.31
2023-03-08T21:17:22.123Z,7.27
2023-03-08T21:20:30.350Z,7.32
2023-03-08T21:23:40.156Z,7.33
2023-03-08T21:26:48.302Z,7.07
2023-03-08T21:29:56.663Z,7.25
2023-03-08T21:33:04.859Z,7.21
2023-03-08T21:36:13.596Z,7.26
2023-03-08T21:39:26.521Z,7.28
2023-03-08T21:42:34.981Z,7.09
2023-03-08T21:45:43.604Z,7.17
2023-03-08T21:48:51.897Z,7.07
2023-03-08T21:52:00.946Z,6.99
2023-03-08T21:55:11.517Z,7.03
2023-03-08T21:58:19.632Z,6.98
2023-03-08T22:01:30.146Z,7.07
2023-03-08T22:04:41.858Z,7.10
2023-03-08T22:07:53.406Z,7.04
2023-03-08T22:11:08.106Z,6.96
2023-03-08T22:14:19.487Z,6.91
2023-03-08T22:17:30.671Z,6.99
2023-03-08T22:20:40.062Z,6.98
2023-03-08T22:23:56.377Z,7.00
2023-03-08T22:27:11.337Z,6.93
2023-03-08T22:30:23.510Z,7.03
2023-03-08T22:33:33.351Z,6.87
2023-03-08T22:36:44.270Z,6.75
2023-03-08T22:40:00.687Z,6.71
2023-03-08T22:43:16.272Z,6.85
2023-03-08T22:46:27.844Z,6.89
2023-03-08T22:49:36.278Z,7.04
2023-03-08T22:52:44.570Z,6.97
2023-03-08T22:55:52.860Z,7.09
2023-03-08T22:59:04.029Z,7.07
2023-03-08T23:02:12.500Z,7.03
2023-03-08T23:05:22.103Z,7.08
2023-03-08T23:08:30.269Z,7.11
2023-03-08T23:11:39.165Z,7.15
2023-03-08T23:14:48.749Z,7.03
2023-03-08T23:17:56.947Z,6.97
2023-03-08T23:21:06.348Z,6.99
2023-03-08T23:24:15.704Z,6.74
2023-03-08T23:27:24.272Z,6.75
2023-03-08T23:30:34.941Z,6.66
2023-03-08T23:33:44.322Z,6.68
2023-03-08T23:36:53.180Z,6.64
2023-03-08T23:40:01.963Z,6.68
2023-03-08T23:43:10.685Z,6.82
2023-03-08T23:46:21.669Z,6.88
2023-03-08T23:49:29.881Z,6.86
2023-03-08T23:52:38.479Z,6.91
2023-03-08T23:55:46.988Z,7.12
2023-03-08T23:58:57.006Z,7.10
